Terminal Aerodrome Forecast
Issued by NWS North Platte, NE

Home | Current Version | Previous Version | Graphics & Text | Print | Product List | Glossary On
Versions: 1 2 3 4 5 6 7 8 9 10 11 12 13 14 15 16 17 18 19 20 21 22 23 24 25
000
FTUS43 KLBF 251436 AAC
TAFVTN
TAF AMD
KVTN 251436Z 2515/2612 00000KT 0SM FZFG VV002
     FM251530 VRB04KT 2SM BR BKN004
     FM251600 15008KT P6SM SKC
     FM260300 14008KT P6SM SCT250
     FM260900 15005KT P6SM OVC250=

USA.gov is the U.S. government's official web portal to all federal, state and local government web resources and services.